Time;durP1;ratioP1;P1;durP2;ratioP2;P2;SDS_P1;SDS_P2;PMS_P1;PMS_P2;Temp;Humidity;BMP_temperature;BMP_pressure;BME280_temperature;BME280_humidity;BME280_pressure;Samples;Min_cycle;Max_cycle;Signal;HPM_P1;HPM_P2
2024/01/19 00:01:42;;;;;;;5.03;4.00;;;;;;;23.25;100.00;56616.03;5069187;28;20281;-72
2024/01/19 00:04:09;;;;;;;4.65;4.25;;;;;;;-142.91;100.00;56616.03;5069598;28;20233;-72
2024/01/19 00:06:39;;;;;;;4.05;3.65;;;;;;;23.29;100.00;56616.03;5067658;28;20293;-71
2024/01/19 00:09:07;;;;;;;4.03;3.63;;;;;;;23.25;100.00;56616.03;5069308;28;20586;-72
2024/01/19 00:11:33;;;;;;;4.80;4.30;;;;;;;;;;5066790;28;20229;-72
2024/01/19 00:14:00;;;;;;;6.07;4.20;;;;;;;23.25;100.00;56616.03;5063318;28;20624;-72
2024/01/19 00:16:27;;;;;;;5.20;3.92;;;;;;;23.25;100.00;56616.03;5062356;28;20289;-71
2024/01/19 00:18:53;;;;;;;6.30;4.40;;;;;;;-142.91;100.00;56616.03;5058680;28;20318;-73
2024/01/19 00:21:20;;;;;;;5.85;4.85;;;;;;;;;;5056722;28;20308;-71
2024/01/19 00:23:46;;;;;;;5.13;4.68;;;;;;;23.25;100.00;56616.03;5062333;28;20307;-73
2024/01/19 00:26:14;;;;;;;6.85;4.55;;;;;;;23.26;100.00;56616.03;5064567;28;20587;-73
2024/01/19 00:28:41;;;;;;;7.82;5.72;;;;;;;23.26;100.00;56616.03;5062419;28;20301;-70
2024/01/19 00:31:08;;;;;;;8.05;5.10;;;;;;;23.25;100.00;56616.03;5062364;28;20225;-71
2024/01/19 00:33:35;;;;;;;5.97;5.13;;;;;;;-142.91;100.00;56616.03;5061495;28;20289;-71
2024/01/19 00:36:01;;;;;;;5.20;4.70;;;;;;;23.29;100.00;56616.03;5061662;28;20581;-71
2024/01/19 00:38:28;;;;;;;9.73;5.22;;;;;;;23.26;100.00;56616.03;5062826;28;20646;-72
2024/01/19 00:40:55;;;;;;;6.22;5.72;;;;;;;-142.91;100.00;56616.03;5059539;28;20289;-72
2024/01/19 00:43:23;;;;;;;7.75;5.78;;;;;;;-142.91;100.00;56616.03;5059136;28;20321;-73
2024/01/19 00:45:50;;;;;;;6.55;5.45;;;;;;;23.26;100.00;56616.03;5060067;28;20293;-71
2024/01/19 00:48:16;;;;;;;9.63;6.18;;;;;;;23.26;100.00;56616.03;5068017;28;20672;-72
2024/01/19 00:50:43;;;;;;;6.45;5.85;;;;;;;23.26;100.00;56616.03;5062263;28;20309;-73
2024/01/19 00:53:10;;;;;;;6.72;5.43;;;;;;;23.26;100.00;56616.03;5065964;28;20687;-74
2024/01/19 00:55:37;;;;;;;7.10;6.25;;;;;;;-142.91;100.00;56616.03;5064212;28;20281;-73
2024/01/19 00:58:04;;;;;;;5.78;5.18;;;;;;;;;;5068227;28;20210;-74
2024/01/19 01:00:32;;;;;;;5.95;5.20;;;;;;;-142.91;100.00;56616.03;5063175;28;20207;-73
2024/01/19 01:02:59;;;;;;;9.52;6.45;;;;;;;-142.91;100.00;56616.03;5063949;28;20201;-71
2024/01/19 01:05:25;;;;;;;5.82;4.97;;;;;;;23.90;100.00;56616.03;5061589;28;20617;-72
2024/01/19 01:07:52;;;;;;;6.03;4.95;;;;;;;-142.91;100.00;56616.03;5064751;28;20230;-73
2024/01/19 01:10:19;;;;;;;6.40;5.40;;;;;;;-142.91;100.00;56616.03;5069288;28;20289;-71
2024/01/19 01:12:45;;;;;;;8.90;5.80;;;;;;;44.04;100.00;56616.03;5066855;28;20743;-71
2024/01/19 01:15:12;;;;;;;6.18;5.03;;;;;;;23.25;100.00;56616.03;5063437;28;20293;-71
2024/01/19 01:17:40;;;;;;;6.95;5.65;;;;;;;23.26;100.00;56616.03;5069868;28;20285;-71
2024/01/19 01:20:10;;;;;;;5.22;4.72;;;;;;;23.25;100.00;56616.03;5062821;28;20241;-72
2024/01/19 01:22:37;;;;;;;6.30;5.40;;;;;;;23.25;100.00;56616.03;5067946;28;20221;-72
2024/01/19 01:25:04;;;;;;;8.88;5.35;;;;;;;-142.91;100.00;56616.03;5068554;28;20733;-72
2024/01/19 01:27:31;;;;;;;7.68;4.88;;;;;;;-142.91;100.00;56616.03;5069913;28;20286;-73
2024/01/19 01:29:58;;;;;;;7.03;5.30;;;;;;;23.25;100.00;56616.03;5073361;28;20233;-73
2024/01/19 01:32:24;;;;;;;7.18;5.15;;;;;;;23.29;100.00;56616.03;5073014;28;20790;-73
2024/01/19 01:34:52;;;;;;;7.07;5.35;;;;;;;23.25;100.00;56616.03;5073698;28;20270;-73
2024/01/19 01:37:19;;;;;;;11.32;6.47;;;;;;;23.25;100.00;56616.03;5073304;28;20281;-72
2024/01/19 01:39:45;;;;;;;5.43;4.93;;;;;;;23.26;100.00;56616.03;5073832;28;20289;-73
2024/01/19 01:42:12;;;;;;;6.22;5.45;;;;;;;23.26;100.00;56616.03;5071687;28;20273;-72
2024/01/19 01:44:39;;;;;;;5.97;5.38;;;;;;;23.27;100.00;56616.03;5073775;28;20727;-72
2024/01/19 01:47:06;;;;;;;6.75;5.55;;;;;;;-142.91;100.00;56616.03;5073057;28;20586;-73
2024/01/19 01:49:32;;;;;;;7.18;5.25;;;;;;;23.25;100.00;56616.03;5073876;28;20611;-73
2024/01/19 01:52:00;;;;;;;7.78;5.20;;;;;;;-142.91;100.00;56616.03;5073201;28;20253;-71
2024/01/19 01:54:27;;;;;;;6.43;5.28;;;;;;;23.25;100.00;56616.03;5073224;28;20229;-72
2024/01/19 01:56:55;;;;;;;7.68;5.85;;;;;;;23.25;100.00;56616.03;5073232;28;20206;-72
2024/01/19 01:59:22;;;;;;;5.53;5.00;;;;;;;23.25;100.00;56616.03;5073360;28;20282;-72
2024/01/19 02:01:49;;;;;;;5.90;5.35;;;;;;;;;;5076505;28;20237;-71
2024/01/19 02:04:16;;;;;;;6.35;5.32;;;;;;;23.25;100.00;56616.03;5072607;28;20203;-73
2024/01/19 02:06:43;;;;;;;7.22;6.50;;;;;;;23.29;100.00;56616.03;5072053;28;20312;-73
2024/01/19 02:09:11;;;;;;;6.03;5.53;;;;;;;23.26;100.00;56616.03;5071217;28;20293;-72
2024/01/19 02:11:38;;;;;;;9.35;6.75;;;;;;;-142.91;100.00;56616.03;5071206;28;20738;-73
2024/01/19 02:14:05;;;;;;;5.90;5.32;;;;;;;;;;5070911;28;20763;-72
2024/01/19 02:16:32;;;;;;;8.48;5.43;;;;;;;-142.91;100.00;56616.03;5069569;28;20209;-72
2024/01/19 02:18:59;;;;;;;6.95;5.80;;;;;;;;;;5071478;28;20204;-71
2024/01/19 02:21:25;;;;;;;6.38;5.65;;;;;;;23.25;100.00;56616.03;5068936;28;20301;-71
2024/01/19 02:23:59;;;;;;;7.90;6.45;;;;;;;23.25;100.00;56616.03;5073238;28;20241;-72
2024/01/19 02:26:27;;;;;;;7.97;6.30;;;;;;;;;;5072032;28;20293;-74
2024/01/19 02:28:53;;;;;;;5.72;5.22;;;;;;;-142.91;100.00;56616.03;5072561;28;20759;-72
2024/01/19 02:31:20;;;;;;;6.05;4.93;;;;;;;-142.91;100.00;56616.03;5071327;28;20643;-73
2024/01/19 02:33:47;;;;;;;6.13;5.63;;;;;;;23.33;100.00;56616.03;5064989;28;20298;-71
2024/01/19 02:36:13;;;;;;;5.85;5.35;;;;;;;23.26;100.00;56616.03;5072305;28;20229;-73
2024/01/19 02:38:40;;;;;;;6.47;5.85;;;;;;;23.25;100.00;56616.03;5072326;28;20238;-73
2024/01/19 02:41:06;;;;;;;8.00;6.20;;;;;;;;;;5072469;28;20245;-72
2024/01/19 02:43:34;;;;;;;7.90;5.88;;;;;;;;;;5072443;28;20317;-73
2024/01/19 02:46:01;;;;;;;6.13;5.22;;;;;;;;;;5071588;28;20194;-73
2024/01/19 02:48:28;;;;;;;7.57;6.80;;;;;;;;;;5072253;28;20292;-74
2024/01/19 02:50:54;;;;;;;8.20;6.88;;;;;;;-142.91;100.00;56616.03;5071807;28;20301;-73
2024/01/19 02:53:21;;;;;;;7.95;7.22;;;;;;;-142.91;100.00;56616.03;5072845;28;20309;-73
2024/01/19 02:55:48;;;;;;;9.07;7.63;;;;;;;23.26;100.00;56616.03;5071408;28;20638;-73
2024/01/19 02:58:14;;;;;;;7.45;6.75;;;;;;;;;;5071568;28;20245;-72
2024/01/19 03:00:42;;;;;;;10.30;8.40;;;;;;;;;;5072091;28;20661;-73
2024/01/19 03:03:08;;;;;;;10.18;7.13;;;;;;;;;;5070903;28;20278;-72
2024/01/19 03:05:35;;;;;;;9.68;7.32;;;;;;;-142.91;100.00;56616.03;5072084;28;20309;-72
2024/01/19 03:08:02;;;;;;;8.25;7.43;;;;;;;-142.91;100.00;56616.03;5071422;28;20245;-73
2024/01/19 03:10:28;;;;;;;11.55;7.90;;;;;;;23.27;100.00;56616.03;5071683;28;20198;-73
2024/01/19 03:12:55;;;;;;;8.98;7.30;;;;;;;-142.91;100.00;56616.03;5071794;28;20222;-72
2024/01/19 03:15:22;;;;;;;9.25;8.20;;;;;;;-142.91;100.00;56616.03;5071566;28;20201;-73
2024/01/19 03:17:50;;;;;;;9.27;7.30;;;;;;;-142.91;100.00;56616.03;5071583;28;20194;-73
2024/01/19 03:20:16;;;;;;;9.57;7.28;;;;;;;;;;5072035;28;20294;-74
2024/01/19 03:22:44;;;;;;;8.10;6.70;;;;;;;-142.91;100.00;56616.03;5071269;28;20262;-73
2024/01/19 03:25:10;;;;;;;8.18;7.38;;;;;;;23.26;100.00;56616.03;5071138;28;20202;-72
2024/01/19 03:27:37;;;;;;;7.97;7.25;;;;;;;-142.91;100.00;56616.03;5071301;28;20292;-72
2024/01/19 03:30:04;;;;;;;11.45;8.32;;;;;;;23.25;100.00;56616.03;5071684;28;20256;-72
2024/01/19 03:32:31;;;;;;;8.25;7.55;;;;;;;23.25;100.00;56616.03;5070666;28;20305;-73
2024/01/19 03:34:59;;;;;;;9.35;8.38;;;;;;;23.25;100.00;56616.03;5071578;28;20278;-73
2024/01/19 03:37:27;;;;;;;11.63;8.10;;;;;;;23.25;100.00;56616.03;5071060;28;20732;-73
2024/01/19 03:39:54;;;;;;;10.20;8.57;;;;;;;23.25;100.00;56616.03;5062709;28;20207;-73
2024/01/19 03:42:21;;;;;;;10.60;8.05;;;;;;;23.25;100.00;56616.03;5070670;28;20290;-74
2024/01/19 03:44:47;;;;;;;9.18;7.88;;;;;;;23.25;100.00;56616.03;5071109;28;20325;-74
2024/01/19 03:47:14;;;;;;;9.25;7.22;;;;;;;23.25;100.00;56616.03;5070933;28;20744;-73
2024/01/19 03:49:40;;;;;;;8.15;7.32;;;;;;;23.25;100.00;56616.03;5070758;28;20290;-72
2024/01/19 03:52:09;;;;;;;8.13;7.13;;;;;;;23.25;100.00;56616.03;5070121;28;20313;-73
2024/01/19 03:54:37;;;;;;;8.80;7.65;;;;;;;23.26;100.00;56616.03;5070506;28;20293;-73
2024/01/19 03:57:05;;;;;;;12.60;8.30;;;;;;;23.25;100.00;56616.03;5070511;28;20775;-74
2024/01/19 03:59:31;;;;;;;10.30;8.63;;;;;;;-142.91;100.00;56616.03;5070097;28;20260;-72
2024/01/19 04:01:58;;;;;;;9.77;8.18;;;;;;;;;;5070369;28;20301;-73
2024/01/19 04:04:26;;;;;;;13.07;8.60;;;;;;;-142.91;100.00;56616.03;5067605;28;20647;-74
2024/01/19 04:06:53;;;;;;;12.50;8.82;;;;;;;23.29;100.00;56616.03;5064719;28;20195;-75
2024/01/19 04:09:21;;;;;;;9.48;8.52;;;;;;;23.25;100.00;56616.03;5066426;28;20594;-74
2024/01/19 04:11:48;;;;;;;8.57;7.78;;;;;;;189.72;100.00;56616.03;5068941;28;20780;-72
2024/01/19 04:14:16;;;;;;;11.70;8.40;;;;;;;-142.91;100.00;56616.03;5068867;28;20282;-74
2024/01/19 04:16:42;;;;;;;8.10;7.30;;;;;;;-142.91;100.00;56616.03;5058602;28;20289;-76
2024/01/19 04:19:09;;;;;;;7.20;6.47;;;;;;;23.25;100.00;56616.03;5068695;28;20232;-73
2024/01/19 04:21:36;;;;;;;7.82;7.13;;;;;;;23.25;100.00;56616.03;5069038;28;20313;-73
2024/01/19 04:24:03;;;;;;;8.43;7.32;;;;;;;23.25;100.00;56616.03;5070440;28;20735;-74
2024/01/19 04:26:31;;;;;;;9.48;7.18;;;;;;;-142.91;100.00;56616.03;5071312;28;20271;-74
2024/01/19 04:28:57;;;;;;;7.75;7.05;;;;;;;23.25;100.00;56616.03;5069926;28;20687;-74
2024/01/19 04:31:24;;;;;;;12.15;7.32;;;;;;;23.25;100.00;56616.03;5071023;28;20273;-73
2024/01/19 04:33:51;;;;;;;7.40;6.68;;;;;;;-142.91;100.00;56616.03;5069261;28;20313;-72
2024/01/19 04:36:18;;;;;;;8.02;7.03;;;;;;;23.25;100.00;56616.03;5070608;28;20281;-72
2024/01/19 04:38:48;;;;;;;11.60;8.18;;;;;;;23.25;100.00;56616.03;5069195;28;20228;-75
2024/01/19 04:41:15;;;;;;;9.32;7.80;;;;;;;23.25;100.00;56616.03;5065936;28;20260;-73
2024/01/19 04:43:43;;;;;;;9.10;8.10;;;;;;;23.25;100.00;56616.03;5069220;28;20320;-73
2024/01/19 04:46:10;;;;;;;8.55;7.70;;;;;;;23.27;100.00;56616.03;5071078;28;20226;-72
2024/01/19 04:48:36;;;;;;;11.23;7.45;;;;;;;23.25;100.00;56616.03;5070439;28;20230;-73
2024/01/19 04:51:03;;;;;;;9.77;7.93;;;;;;;23.27;100.00;56616.03;5068935;28;20242;-74
2024/01/19 04:53:30;;;;;;;8.82;7.35;;;;;;;;;;5069173;28;20226;-72
2024/01/19 04:55:56;;;;;;;9.75;7.75;;;;;;;23.25;100.00;56616.03;5069995;28;20229;-73
2024/01/19 04:58:23;;;;;;;8.60;7.68;;;;;;;23.33;100.00;56616.03;5069476;28;20655;-73
2024/01/19 05:00:51;;;;;;;9.10;7.70;;;;;;;23.29;100.00;56616.03;5060018;28;20242;-73
2024/01/19 05:03:18;;;;;;;13.30;8.05;;;;;;;23.25;100.00;56616.03;5066569;28;20229;-73
2024/01/19 05:05:44;;;;;;;12.50;7.90;;;;;;;23.29;100.00;56616.03;5070095;28;20680;-74
2024/01/19 05:08:11;;;;;;;13.07;8.50;;;;;;;23.29;100.00;56616.03;5069427;28;20198;-74
2024/01/19 05:10:37;;;;;;;9.38;7.97;;;;;;;23.25;100.00;56616.03;5069951;28;20281;-73
2024/01/19 05:13:04;;;;;;;9.80;7.97;;;;;;;-142.91;100.00;56616.03;5068958;28;20265;-73
2024/01/19 05:15:31;;;;;;;11.27;7.70;;;;;;;23.25;100.00;56616.03;5069630;28;20260;-73
2024/01/19 05:18:00;;;;;;;32.05;17.95;;;;;;;23.27;100.00;56616.03;5069721;28;20236;-73
2024/01/19 05:20:27;;;;;;;16.55;10.65;;;;;;;;;;5069946;28;20293;-73
2024/01/19 05:22:53;;;;;;;22.48;15.43;;;;;;;23.25;100.00;56616.03;5069804;28;20237;-74
2024/01/19 05:25:20;;;;;;;22.15;15.75;;;;;;;23.25;100.00;56616.03;5069434;28;20198;-73
2024/01/19 05:27:50;;;;;;;14.20;10.73;;;;;;;23.29;100.00;56616.03;5069457;28;20279;-73
2024/01/19 05:30:17;;;;;;;22.40;14.60;;;;;;;23.29;100.00;56616.03;5070041;28;20206;-73
2024/01/19 05:32:44;;;;;;;16.60;12.98;;;;;;;23.25;100.00;56616.03;5069265;28;20268;-75
2024/01/19 05:35:12;;;;;;;19.88;13.00;;;;;;;23.25;100.00;56616.03;5069649;28;20198;-73
2024/01/19 05:37:39;;;;;;;18.73;11.77;;;;;;;23.26;100.00;56616.03;5069249;28;20314;-74
2024/01/19 05:40:07;;;;;;;17.48;11.57;;;;;;;-142.91;100.00;56616.03;5070063;28;20281;-74
2024/01/19 05:42:34;;;;;;;22.17;13.73;;;;;;;23.25;100.00;56616.03;5068575;28;20217;-72
2024/01/19 05:45:00;;;;;;;18.73;12.27;;;;;;;;;;5069726;28;20241;-74
2024/01/19 05:47:27;;;;;;;15.60;10.48;;;;;;;23.25;100.00;56616.03;5069513;28;20329;-73
2024/01/19 05:49:53;;;;;;;19.42;11.40;;;;;;;-142.91;100.00;56616.03;5069811;28;20260;-74
2024/01/19 05:52:21;;;;;;;18.80;12.73;;;;;;;-142.91;100.00;56616.03;5064289;28;20754;-72
2024/01/19 05:54:48;;;;;;;28.50;19.85;;;;;;;-142.91;100.00;56616.03;5069473;28;20285;-73
2024/01/19 05:57:15;;;;;;;25.05;19.27;;;;;;;23.25;100.00;56616.03;5069387;28;20281;-74
2024/01/19 05:59:41;;;;;;;23.27;17.55;;;;;;;23.29;100.00;56616.03;5069865;28;20281;-73
2024/01/19 06:02:08;;;;;;;30.33;20.55;;;;;;;-142.91;100.00;56616.03;5068944;28;20290;-74
2024/01/19 06:04:37;;;;;;;35.28;20.65;;;;;;;23.33;100.00;56616.03;5069200;28;20285;-74
2024/01/19 06:07:04;;;;;;;25.33;17.92;;;;;;;23.25;100.00;56616.03;5067987;28;20195;-74
2024/01/19 06:09:32;;;;;;;31.13;16.77;;;;;;;-142.91;100.00;56616.03;5062669;28;20301;-75
2024/01/19 06:11:58;;;;;;;22.52;14.57;;;;;;;23.26;100.00;56616.03;5067388;28;20637;-76
2024/01/19 06:14:25;;;;;;;21.23;14.93;;;;;;;-142.91;100.00;56616.03;5070904;28;20313;-73
2024/01/19 06:16:52;;;;;;;22.13;14.52;;;;;;;23.25;100.00;56616.03;5069689;28;20309;-73
2024/01/19 06:19:19;;;;;;;26.02;13.57;;;;;;;-142.91;100.00;56616.03;5070699;28;20210;-72
2024/01/19 06:21:46;;;;;;;16.30;11.52;;;;;;;-142.91;100.00;56616.03;5071815;28;20676;-73
2024/01/19 06:24:15;;;;;;;16.23;12.43;;;;;;;-142.91;100.00;56616.03;5072489;28;20675;-73
2024/01/19 06:26:45;;;;;;;11.18;10.05;;;;;;;23.25;100.00;56616.03;5067750;28;20692;-73
2024/01/19 06:29:11;;;;;;;12.32;10.45;;;;;;;-142.91;100.00;56616.03;5072491;28;20294;-74
2024/01/19 06:31:43;;;;;;;18.85;11.95;;;;;;;-142.91;100.00;56616.03;5082185;28;20233;-74
2024/01/19 06:34:10;;;;;;;15.73;12.63;;;;;;;-142.91;100.00;56616.03;5074760;28;20309;-74
2024/01/19 06:36:36;;;;;;;17.52;12.15;;;;;;;23.25;100.00;56616.03;5072631;28;20286;-73
2024/01/19 06:39:04;;;;;;;14.98;12.10;;;;;;;23.26;100.00;56616.03;5071638;28;20286;-74
2024/01/19 06:41:31;;;;;;;17.63;12.95;;;;;;;23.26;100.00;56616.03;5072818;28;20676;-73
2024/01/19 06:43:58;;;;;;;16.60;12.55;;;;;;;;;;5072118;28;20314;-74
2024/01/19 06:46:25;;;;;;;15.45;12.05;;;;;;;23.29;100.00;56616.03;5072585;28;20673;-74
2024/01/19 06:48:52;;;;;;;18.02;13.38;;;;;;;-142.91;100.00;56616.03;5072452;28;20294;-73
2024/01/19 06:51:20;;;;;;;17.85;13.68;;;;;;;23.27;100.00;56616.03;5070768;28;20209;-74
2024/01/19 06:53:46;;;;;;;15.95;12.70;;;;;;;23.25;100.00;56616.03;5072336;28;20226;-74
2024/01/19 06:56:13;;;;;;;20.63;13.15;;;;;;;23.26;100.00;56616.03;5073067;28;20285;-75
2024/01/19 06:58:40;;;;;;;18.67;12.52;;;;;;;-142.91;100.00;56616.03;5072263;28;20294;-74
2024/01/19 07:01:08;;;;;;;15.50;12.70;;;;;;;23.25;100.00;56616.03;5072410;28;20206;-74
2024/01/19 07:03:34;;;;;;;17.70;12.65;;;;;;;23.25;100.00;56616.03;5072319;28;20712;-74
2024/01/19 07:06:01;;;;;;;15.73;11.80;;;;;;;23.25;100.00;56616.03;5072919;28;20226;-73
2024/01/19 07:08:27;;;;;;;16.83;12.40;;;;;;;23.33;100.00;56616.03;5071810;28;20237;-74
2024/01/19 07:10:54;;;;;;;22.95;13.95;;;;;;;23.25;100.00;56616.03;5060746;28;20825;-74
2024/01/19 07:13:20;;;;;;;17.50;12.32;;;;;;;23.26;100.00;56616.03;5072393;28;20309;-72
2024/01/19 07:15:47;;;;;;;14.70;12.48;;;;;;;23.29;100.00;56616.03;5072431;28;20289;-74
2024/01/19 07:18:15;;;;;;;16.30;12.73;;;;;;;23.25;100.00;56616.03;5071011;28;20202;-73
2024/01/19 07:20:43;;;;;;;18.00;12.13;;;;;;;23.33;100.00;56616.03;5070961;28;20795;-73
2024/01/19 07:23:09;;;;;;;15.60;12.75;;;;;;;;;;5072249;28;20202;-73
2024/01/19 07:25:36;;;;;;;25.50;13.32;;;;;;;;;;5071134;28;20237;-73
2024/01/19 07:28:02;;;;;;;16.10;12.98;;;;;;;;;;5072163;28;20198;-74
2024/01/19 07:30:29;;;;;;;16.27;12.27;;;;;;;23.26;100.00;56616.03;5071237;28;20771;-74
2024/01/19 07:32:56;;;;;;;16.98;12.38;;;;;;;-142.91;100.00;56616.03;5072081;28;20309;-75
2024/01/19 07:35:24;;;;;;;20.45;12.13;;;;;;;-142.91;100.00;56616.03;5071757;28;20198;-73
2024/01/19 07:37:50;;;;;;;17.65;11.70;;;;;;;-142.91;100.00;56616.03;5069068;28;20228;-74
2024/01/19 07:40:17;;;;;;;16.20;11.75;;;;;;;-142.91;100.00;56616.03;5071174;28;20289;-74
2024/01/19 07:42:44;;;;;;;17.15;11.13;;;;;;;44.04;100.00;56616.03;5071580;28;20625;-75
2024/01/19 07:45:10;;;;;;;13.32;10.93;;;;;;;-142.91;100.00;56616.03;5071356;28;20290;-76
2024/01/19 07:47:37;;;;;;;13.73;9.95;;;;;;;-142.91;100.00;56616.03;5071627;28;20234;-75
2024/01/19 07:50:05;;;;;;;16.52;10.82;;;;;;;-142.91;100.00;56616.03;5070834;28;20245;-74
2024/01/19 07:52:33;;;;;;;15.43;11.70;;;;;;;-142.91;100.00;56616.03;5071674;28;20202;-74
2024/01/19 07:55:00;;;;;;;14.93;12.32;;;;;;;-142.91;100.00;56616.03;5071172;28;20219;-75
2024/01/19 07:57:26;;;;;;;18.30;11.13;;;;;;;-142.91;100.00;56616.03;5071465;28;20294;-74
2024/01/19 07:59:53;;;;;;;15.38;11.20;;;;;;;-142.91;100.00;56616.03;5064156;28;20294;-76
2024/01/19 08:02:21;;;;;;;16.05;11.13;;;;;;;-142.91;100.00;56616.03;5071373;28;20702;-75
2024/01/19 08:04:48;;;;;;;15.07;9.70;;;;;;;-142.91;100.00;56616.03;5071104;28;20590;-73
2024/01/19 08:07:14;;;;;;;14.40;11.35;;;;;;;-142.91;100.00;56616.03;5066836;28;20253;-72
2024/01/19 08:09:42;;;;;;;11.48;10.40;;;;;;;-142.91;100.00;56616.03;5069329;28;20237;-74
2024/01/19 08:12:09;;;;;;;12.27;9.98;;;;;;;-142.91;100.00;56616.03;5069750;28;20289;-74
2024/01/19 08:14:35;;;;;;;14.32;10.75;;;;;;;-142.91;100.00;56616.03;5068675;28;20313;-74
2024/01/19 08:17:02;;;;;;;14.57;10.75;;;;;;;-142.91;100.00;56616.03;5068925;28;20287;-74
2024/01/19 08:19:29;;;;;;;20.05;12.73;;;;;;;-142.91;100.00;56616.03;5069433;28;20233;-73
2024/01/19 08:21:56;;;;;;;39.22;18.98;;;;;;;-142.91;100.00;56616.03;5069424;28;20310;-74
2024/01/19 08:24:23;;;;;;;29.10;15.23;;;;;;;-142.91;100.00;56616.03;5070242;28;20198;-74
2024/01/19 08:26:51;;;;;;;45.63;22.08;;;;;;;-142.91;100.00;56616.03;5069926;28;20230;-74
2024/01/19 08:29:17;;;;;;;45.03;20.95;;;;;;;-142.91;100.00;56616.03;5070757;28;20240;-75
2024/01/19 08:31:44;;;;;;;27.33;16.92;;;;;;;-142.91;100.00;56616.03;5070456;28;20645;-74
2024/01/19 08:34:12;;;;;;;18.30;13.18;;;;;;;;;;5070458;28;20738;-74
2024/01/19 08:36:41;;;;;;;17.23;12.02;;;;;;;-142.91;100.00;56616.03;5070305;28;20290;-74
2024/01/19 08:39:09;;;;;;;14.38;9.98;;;;;;;33.65;100.00;56616.03;5070095;28;20298;-73
2024/01/19 08:41:41;;;;;;;13.85;10.90;;;;;;;44.04;100.00;56616.03;5070227;28;20757;-75
2024/01/19 08:44:09;;;;;;;14.48;8.57;;;;;;;23.25;100.00;56616.03;5069295;28;20313;-73
2024/01/19 08:46:42;;;;;;;11.13;7.85;;;;;;;-142.91;100.00;56616.03;5070564;28;20233;-75
2024/01/19 08:49:08;;;;;;;11.93;7.78;;;;;;;-142.91;100.00;56616.03;5069158;28;20651;-77
2024/01/19 08:51:35;;;;;;;9.55;7.30;;;;;;;44.04;100.00;56616.03;5070263;28;20237;-72
2024/01/19 08:54:02;;;;;;;10.63;7.35;;;;;;;-142.91;100.00;56616.03;5069461;28;20674;-76
2024/01/19 08:56:29;;;;;;;13.77;7.15;;;;;;;64.84;100.00;56616.03;5069049;28;20679;-74
2024/01/19 08:58:56;;;;;;;12.52;8.30;;;;;;;189.72;100.00;56616.03;5061905;28;20263;-76
2024/01/19 09:01:25;;;;;;;8.88;7.20;;;;;;;189.72;100.00;56616.03;5069935;28;20275;-81
2024/01/19 09:03:51;;;;;;;7.80;7.00;;;;;;;-142.91;100.00;56616.03;5069207;28;20250;-74
2024/01/19 09:06:18;;;;;;;9.00;7.10;;;;;;;-142.91;100.00;56616.03;5068651;28;20234;-76
2024/01/19 09:08:45;;;;;;;7.10;6.50;;;;;;;-142.91;100.00;56616.03;5034395;28;20317;-75
2024/01/19 09:11:12;;;;;;;10.90;6.32;;;;;;;-142.91;100.00;56616.03;5025945;28;21063;-73
2024/01/19 09:13:39;;;;;;;9.45;6.72;;;;;;;-142.91;100.00;56616.03;5058058;28;20317;-72
2024/01/19 09:16:07;;;;;;;9.23;6.53;;;;;;;-142.91;100.00;56616.03;5062904;28;20691;-73
2024/01/19 09:18:35;;;;;;;10.05;8.02;;;;;;;-142.91;100.00;56616.03;5065218;28;20285;-75
2024/01/19 09:21:01;;;;;;;10.88;9.05;;;;;;;;;;5065230;28;20249;-75
2024/01/19 09:23:28;;;;;;;9.25;8.25;;;;;;;-142.91;100.00;56616.03;5065359;28;20297;-75
2024/01/19 09:25:55;;;;;;;11.65;8.30;;;;;;;-142.91;100.00;56616.03;5054104;28;20289;-73
2024/01/19 09:28:21;;;;;;;10.20;8.52;;;;;;;-142.91;100.00;56616.03;5064700;28;20264;-71
2024/01/19 09:30:48;;;;;;;7.55;6.80;;;;;;;-142.91;100.00;56616.03;5065003;28;20747;-73
2024/01/19 09:33:15;;;;;;;12.63;7.05;;;;;;;-142.91;100.00;56616.03;5065437;28;20305;-70
2024/01/19 09:35:43;;;;;;;8.82;8.02;;;;;;;-142.91;100.00;56616.03;5065625;28;20691;-72
2024/01/19 09:38:10;;;;;;;8.77;7.78;;;;;;;-142.91;100.00;56616.03;5065602;28;20702;-70
2024/01/19 09:40:39;;;;;;;11.45;7.55;;;;;;;-142.91;100.00;56616.03;5065598;28;20288;-72
2024/01/19 09:43:07;;;;;;;7.95;6.15;;;;;;;64.84;100.00;56616.03;5065402;28;20273;-72
2024/01/19 09:45:40;;;;;;;9.60;7.78;;;;;;;-142.91;100.00;56616.03;5061512;28;20336;-74
2024/01/19 09:48:19;;;;;;;9.00;7.60;;;;;;;-142.91;100.00;56616.03;5091623;22;20238;-74
2024/01/19 09:50:51;;;;;;;10.68;7.93;;;;;;;-142.91;100.00;56616.03;5069020;28;20229;-76
2024/01/19 09:53:23;;;;;;;11.18;8.85;;;;;;;-142.91;100.00;56616.03;5071743;28;20285;-74
2024/01/19 09:55:49;;;;;;;9.82;8.00;;;;;;;-142.91;100.00;56616.03;5073119;28;20202;-75
2024/01/19 09:58:17;;;;;;;12.27;8.80;;;;;;;-142.91;100.00;56616.03;5071478;28;20226;-75
2024/01/19 10:00:47;;;;;;;14.02;8.77;;;;;;;33.65;100.00;56616.03;5073538;28;20202;-75
2024/01/19 10:03:17;;;;;;;11.85;9.18;;;;;;;-142.91;100.00;56616.03;5070969;28;20542;-76
2024/01/19 10:05:44;;;;;;;21.52;13.02;;;;;;;-142.91;100.00;56616.03;5073215;28;20232;-75
2024/01/19 10:08:14;;;;;;;15.57;10.27;;;;;;;-142.91;100.00;56616.03;5068233;28;20290;-74
2024/01/19 10:10:42;;;;;;;13.45;10.80;;;;;;;-142.91;100.00;56616.03;5070631;28;20205;-75
2024/01/19 10:13:09;;;;;;;19.10;11.07;;;;;;;23.25;100.00;56616.03;5070715;28;20206;-76
2024/01/19 10:15:35;;;;;;;15.38;11.40;;;;;;;-142.91;100.00;56616.03;5070453;28;20629;-75
2024/01/19 10:18:05;;;;;;;20.05;11.63;;;;;;;-142.91;100.00;56616.03;5067614;28;20286;-74
2024/01/19 10:20:32;;;;;;;19.05;10.52;;;;;;;-142.91;100.00;56616.03;5069736;28;20289;-74
2024/01/19 10:23:19;;;;;;;21.02;10.43;;;;;;;23.41;100.00;56616.03;5071185;28;20198;-76
2024/01/19 10:25:46;;;;;;;15.02;10.20;;;;;;;-142.91;100.00;56616.03;5072772;28;20210;-75
2024/01/19 10:28:30;;;;;;;19.92;10.27;;;;;;;-142.91;100.00;56616.03;5073271;28;20286;-76
2024/01/19 10:31:13;;;;;;;13.55;9.75;;;;;;;-142.91;100.00;56616.03;5072386;28;20208;-73
2024/01/19 10:33:48;;;;;;;13.52;9.20;;;;;;;-142.91;100.00;56616.03;5072746;28;20285;-75
2024/01/19 10:36:15;;;;;;;8.50;6.47;;;;;;;-142.91;100.00;56616.03;5060415;28;20233;-74
2024/01/19 10:38:43;;;;;;;8.07;7.13;;;;;;;-142.91;100.00;56616.03;5072445;28;20238;-75
2024/01/19 10:41:15;;;;;;;14.32;6.43;;;;;;;-142.91;100.00;56616.03;5072637;28;20234;-72
2024/01/19 10:43:41;;;;;;;10.35;6.05;;;;;;;-142.91;100.00;56616.03;5074212;28;20245;-76
2024/01/19 10:46:19;;;;;;;7.57;4.32;;;;;;;-142.91;100.00;56616.03;5084005;28;20212;-75
2024/01/19 10:48:46;;;;;;;5.65;2.92;;;;;;;-142.91;100.00;56616.03;5071252;28;20273;-75
2024/01/19 10:51:13;;;;;;;3.30;2.00;;;;;;;-142.91;100.00;56616.03;5072566;28;20229;-74
2024/01/19 10:53:40;;;;;;;2.53;1.95;;;;;;;-142.91;100.00;56616.03;5059568;28;20222;-76
2024/01/19 10:56:08;;;;;;;4.50;2.10;;;;;;;-142.91;100.00;56616.03;5062455;28;20234;-75
2024/01/19 10:58:35;;;;;;;6.10;2.38;;;;;;;-142.91;100.00;56616.03;5070236;28;20246;-75
2024/01/19 11:01:14;;;;;;;3.30;2.00;;;;;;;-142.91;100.00;56616.03;5072068;28;20234;-75
2024/01/19 11:03:41;;;;;;;2.67;1.90;;;;;;;-142.91;100.00;56616.03;5060279;28;20251;-75
2024/01/19 11:06:08;;;;;;;2.35;1.58;;;;;;;-142.91;100.00;56616.03;5072336;28;20241;-76
2024/01/19 11:08:34;;;;;;;4.82;1.70;;;;;;;-142.91;100.00;56616.03;5072067;28;20281;-75
2024/01/19 11:11:04;;;;;;;6.03;2.35;;;;;;;23.25;100.00;56616.03;5060073;28;20688;-74
2024/01/19 11:13:38;;;;;;;5.85;1.88;;;;;;;-142.91;100.00;56616.03;5060249;28;20237;-75
2024/01/19 11:16:11;;;;;;;5.75;2.00;;;;;;;-142.91;100.00;56616.03;5083346;28;20218;-75
2024/01/19 11:18:38;;;;;;;3.47;1.65;;;;;;;-142.91;100.00;56616.03;5072232;28;20586;-75
2024/01/19 11:21:06;;;;;;;6.78;1.30;;;;;;;-142.91;100.00;56616.03;5060069;28;20345;-74
2024/01/19 11:23:34;;;;;;;3.15;1.48;;;;;;;-142.91;100.00;56616.03;5070582;28;20230;-76
2024/01/19 11:26:09;;;;;;;3.58;1.40;;;;;;;23.25;100.00;56616.03;5070206;28;20675;-75